createdAt,value
2022-07-26T00:00:27.291Z,45.9
2022-07-26T00:05:27.240Z,46.1
2022-07-26T00:10:28.030Z,46.2
2022-07-26T00:15:27.298Z,46.4
2022-07-26T00:20:27.571Z,46.6
2022-07-26T00:25:27.342Z,46.8
2022-07-26T00:30:27.338Z,47.0
2022-07-26T00:35:27.517Z,47.1
2022-07-26T00:40:27.163Z,47.3
2022-07-26T00:45:27.403Z,47.5
2022-07-26T00:50:27.176Z,47.7
2022-07-26T00:55:27.129Z,47.9
2022-07-26T01:00:27.086Z,48.2
2022-07-26T01:05:27.202Z,48.5
2022-07-26T01:10:27.113Z,48.7
2022-07-26T01:15:27.376Z,49.0
2022-07-26T01:20:27.206Z,49.3
2022-07-26T01:25:27.053Z,49.5
2022-07-26T01:30:27.119Z,49.7
2022-07-26T01:35:27.027Z,49.9
2022-07-26T01:40:27.261Z,50.1
2022-07-26T01:45:27.135Z,50.2
2022-07-26T01:50:27.062Z,50.4
2022-07-26T01:55:27.046Z,50.6
2022-07-26T02:00:27.042Z,50.7
2022-07-26T02:05:27.051Z,50.8
2022-07-26T02:10:27.141Z,51.0
2022-07-26T02:15:26.877Z,51.1
2022-07-26T02:20:27.459Z,51.3
2022-07-26T02:25:27.508Z,51.5
2022-07-26T02:30:26.983Z,51.7
2022-07-26T02:35:26.968Z,51.9
2022-07-26T02:40:27.023Z,52.1
2022-07-26T02:45:27.077Z,52.3
2022-07-26T02:50:26.990Z,52.5
2022-07-26T02:55:27.153Z,52.7
2022-07-26T03:00:26.977Z,53.0
2022-07-26T03:05:26.938Z,53.2
2022-07-26T03:10:26.927Z,53.4
2022-07-26T03:15:27.083Z,53.7
2022-07-26T03:20:26.896Z,53.8
2022-07-26T03:25:27.085Z,53.9
2022-07-26T03:30:27.007Z,54.1
2022-07-26T03:35:26.934Z,54.2
2022-07-26T03:40:27.026Z,54.4
2022-07-26T03:45:26.953Z,54.5
2022-07-26T03:50:27.700Z,54.7
2022-07-26T03:55:26.939Z,54.9
2022-07-26T04:00:26.929Z,54.9
2022-07-26T04:05:26.874Z,55.1
2022-07-26T04:10:26.769Z,55.2
2022-07-26T04:15:27.088Z,55.3
2022-07-26T04:20:26.877Z,55.4
2022-07-26T04:25:26.880Z,55.3
2022-07-26T04:30:26.734Z,55.3
2022-07-26T04:35:26.865Z,55.4
2022-07-26T04:40:27.014Z,55.4
2022-07-26T04:45:26.716Z,55.4
2022-07-26T04:50:26.662Z,55.4
2022-07-26T04:55:26.753Z,55.5
2022-07-26T05:00:26.805Z,55.5
2022-07-26T05:05:26.818Z,55.6
2022-07-26T05:10:26.729Z,55.7
2022-07-26T05:15:35.033Z,55.8
2022-07-26T05:20:26.721Z,55.9
2022-07-26T05:25:26.712Z,55.8
2022-07-26T05:30:26.657Z,55.8
2022-07-26T05:35:26.762Z,55.6
2022-07-26T05:40:26.706Z,55.4
2022-07-26T05:45:26.753Z,55.3
2022-07-26T05:50:26.659Z,55.1
2022-07-26T05:55:26.668Z,54.9
2022-07-26T06:00:26.714Z,54.8
2022-07-26T06:05:26.905Z,54.6
2022-07-26T06:10:26.615Z,54.6
2022-07-26T06:15:26.671Z,54.6
2022-07-26T06:20:26.652Z,54.6
2022-07-26T06:25:26.649Z,54.3
2022-07-26T06:30:26.638Z,54.0
2022-07-26T06:35:26.761Z,53.5
2022-07-26T06:40:26.603Z,53.5
2022-07-26T06:45:26.540Z,53.3
2022-07-26T06:50:26.554Z,53.4
2022-07-26T06:55:26.681Z,53.5
2022-07-26T07:00:26.749Z,53.5
2022-07-26T07:05:26.559Z,53.8
2022-07-26T07:10:26.607Z,53.9
2022-07-26T07:15:26.638Z,53.7
2022-07-26T07:20:26.655Z,53.6
2022-07-26T07:25:30.687Z,53.6
2022-07-26T07:30:28.002Z,53.7
2022-07-26T07:35:31.634Z,53.5
2022-07-26T07:40:26.840Z,53.5
2022-07-26T07:45:26.661Z,53.6
2022-07-26T07:50:27.304Z,53.6
2022-07-26T07:55:41.031Z,53.6
2022-07-26T08:00:27.029Z,53.9
2022-07-26T08:05:26.384Z,54.0
2022-07-26T08:10:26.425Z,54.3
2022-07-26T08:15:26.401Z,54.4
2022-07-26T08:20:26.458Z,54.6
2022-07-26T08:25:26.388Z,55.1
2022-07-26T08:30:26.319Z,55.4
2022-07-26T08:35:26.393Z,55.9
2022-07-26T08:40:26.443Z,56.3
2022-07-26T08:45:26.777Z,56.8
2022-07-26T08:50:26.355Z,57.5
2022-07-26T08:55:29.650Z,58.1
2022-07-26T09:00:26.414Z,58.6
2022-07-26T09:05:26.427Z,59.1
2022-07-26T09:10:26.345Z,59.8
2022-07-26T09:15:26.567Z,60.3
2022-07-26T09:20:28.571Z,60.6
2022-07-26T09:25:26.377Z,61.2
2022-07-26T09:30:26.410Z,61.6
2022-07-26T09:35:46.034Z,61.9
2022-07-26T09:40:27.074Z,62.5
2022-07-26T09:45:26.908Z,64.0
2022-07-26T09:50:26.363Z,64.8
2022-07-26T09:55:26.397Z,66.5
2022-07-26T10:00:26.654Z,65.0
2022-07-26T10:05:26.299Z,64.9
2022-07-26T10:10:26.259Z,65.0
2022-07-26T10:15:26.204Z,65.2
2022-07-26T10:20:26.297Z,65.1
2022-07-26T10:25:26.291Z,65.2
2022-07-26T10:30:31.869Z,65.7
2022-07-26T10:35:26.261Z,66.3
2022-07-26T10:40:26.336Z,66.9
2022-07-26T10:45:26.192Z,66.2
2022-07-26T10:50:26.406Z,66.4
2022-07-26T10:55:26.119Z,66.2
2022-07-26T11:00:26.516Z,66.5
2022-07-26T11:05:26.333Z,66.4
2022-07-26T11:10:26.597Z,66.6
2022-07-26T11:15:26.101Z,66.6
2022-07-26T11:20:29.659Z,66.9
2022-07-26T11:25:26.197Z,67.0
2022-07-26T11:30:26.139Z,67.1
2022-07-26T11:35:29.948Z,67.4
2022-07-26T11:40:26.100Z,67.7
2022-07-26T11:45:26.242Z,67.8
2022-07-26T11:50:26.143Z,67.9
2022-07-26T11:55:26.406Z,68.1
2022-07-26T12:00:26.157Z,69.1
2022-07-26T12:05:26.475Z,68.6
2022-07-26T12:10:26.344Z,68.9
2022-07-26T12:15:26.322Z,69.2
2022-07-26T12:20:26.334Z,69.3
2022-07-26T12:25:26.162Z,69.7
2022-07-26T12:30:31.008Z,69.4
2022-07-26T12:35:26.210Z,69.5
2022-07-26T12:40:26.198Z,69.6
2022-07-26T12:45:26.637Z,69.6
2022-07-26T12:50:26.090Z,70.0
2022-07-26T12:55:26.467Z,69.8
2022-07-26T13:00:26.136Z,70.3
2022-07-26T13:05:26.599Z,69.8
2022-07-26T13:10:34.038Z,69.9
2022-07-26T13:15:37.267Z,70.0
2022-07-26T13:20:27.783Z,70.0
2022-07-26T13:25:51.814Z,70.1
2022-07-26T13:30:25.938Z,70.3
2022-07-26T13:35:26.043Z,70.2
2022-07-26T13:40:31.031Z,70.2
2022-07-26T13:45:27.781Z,70.2
2022-07-26T13:50:26.048Z,70.3
2022-07-26T13:55:25.958Z,70.4
2022-07-26T14:00:26.207Z,70.5
2022-07-26T14:05:25.832Z,70.4
2022-07-26T14:10:25.915Z,70.4
2022-07-26T14:15:25.801Z,70.4
2022-07-26T14:20:25.809Z,70.4
2022-07-26T14:25:25.754Z,70.3
2022-07-26T14:30:25.783Z,70.4
2022-07-26T14:35:25.826Z,70.5
2022-07-26T14:40:25.758Z,70.5
2022-07-26T14:45:25.877Z,70.4
2022-07-26T14:50:25.796Z,70.3
2022-07-26T14:55:25.918Z,70.3
2022-07-26T15:00:26.220Z,70.4
2022-07-26T15:05:26.063Z,70.4
2022-07-26T15:10:25.792Z,70.5
2022-07-26T15:15:25.867Z,70.5
2022-07-26T15:20:25.671Z,70.5
2022-07-26T15:25:25.919Z,70.5
2022-07-26T15:30:25.910Z,70.6
2022-07-26T15:35:26.026Z,70.6
2022-07-26T15:40:25.686Z,70.6
2022-07-26T15:45:25.922Z,70.7
2022-07-26T15:50:25.792Z,70.7
2022-07-26T15:55:25.613Z,70.6
2022-07-26T16:05:25.640Z,70.5
2022-07-26T16:10:25.620Z,70.3
2022-07-26T16:15:25.738Z,70.2
2022-07-26T16:20:25.630Z,70.0
2022-07-26T16:25:25.661Z,70.0
2022-07-26T16:30:25.624Z,69.9
2022-07-26T16:35:25.548Z,69.9
2022-07-26T16:40:25.564Z,70.0
2022-07-26T16:45:25.556Z,69.9
2022-07-26T16:50:28.035Z,70.0
2022-07-26T16:55:25.559Z,69.9
2022-07-26T17:00:25.755Z,70.0
2022-07-26T17:05:25.544Z,70.0
2022-07-26T17:10:25.510Z,70.0
2022-07-26T17:15:25.527Z,70.0
2022-07-26T17:20:29.163Z,70.0
2022-07-26T17:25:25.545Z,70.0
2022-07-26T17:30:25.584Z,70.2
2022-07-26T17:35:25.425Z,70.2
2022-07-26T17:40:25.883Z,70.3
2022-07-26T17:45:25.576Z,70.4
2022-07-26T17:50:36.404Z,70.4
2022-07-26T17:55:25.436Z,70.4
2022-07-26T18:00:28.939Z,70.5
2022-07-26T18:05:33.063Z,70.5
2022-07-26T18:10:25.566Z,70.5
2022-07-26T18:15:25.805Z,70.6
2022-07-26T18:20:25.748Z,70.7
2022-07-26T18:25:26.085Z,70.7
2022-07-26T18:30:26.276Z,70.7
2022-07-26T18:35:25.566Z,70.8
2022-07-26T18:40:25.635Z,70.8
2022-07-26T18:45:25.655Z,70.9
2022-07-26T18:50:25.689Z,70.9
2022-07-26T18:55:25.465Z,71.0
2022-07-26T19:00:25.525Z,71.1
2022-07-26T19:05:25.584Z,71.1
2022-07-26T19:10:25.418Z,71.2
2022-07-26T19:15:25.504Z,71.2
2022-07-26T19:20:25.632Z,71.3
2022-07-26T19:25:25.531Z,71.4
2022-07-26T19:30:25.342Z,71.5
2022-07-26T19:35:25.328Z,71.6
2022-07-26T19:40:25.287Z,71.7
2022-07-26T19:45:25.280Z,71.6
2022-07-26T19:50:25.316Z,71.7
2022-07-26T19:55:25.213Z,71.8
2022-07-26T20:00:25.282Z,71.9
2022-07-26T20:05:25.289Z,72.0
2022-07-26T20:10:30.040Z,72.1
2022-07-26T20:15:25.206Z,72.1
2022-07-26T20:20:25.225Z,72.2
2022-07-26T20:25:25.270Z,72.2
2022-07-26T20:30:25.434Z,72.2
2022-07-26T20:35:26.990Z,72.3
2022-07-26T20:40:25.182Z,72.3
2022-07-26T20:45:25.300Z,72.3
2022-07-26T20:50:25.260Z,72.4
2022-07-26T20:55:25.252Z,72.4
2022-07-26T21:00:25.246Z,72.5
2022-07-26T21:05:27.021Z,72.5
2022-07-26T21:10:25.145Z,72.6
2022-07-26T21:15:25.234Z,72.6
2022-07-26T21:20:25.212Z,72.6
2022-07-26T21:25:25.501Z,72.6
2022-07-26T21:30:25.117Z,72.6
2022-07-26T21:35:25.196Z,72.6
2022-07-26T21:40:25.125Z,72.6
2022-07-26T21:45:25.355Z,72.6
2022-07-26T21:50:25.119Z,72.7
2022-07-26T21:55:25.167Z,72.7
2022-07-26T22:00:25.088Z,72.7
2022-07-26T22:05:25.310Z,72.8
2022-07-26T22:10:25.060Z,72.8
2022-07-26T22:15:25.054Z,72.8
2022-07-26T22:20:25.105Z,72.9
2022-07-26T22:25:25.293Z,72.9
2022-07-26T22:30:25.062Z,72.9
2022-07-26T22:35:25.077Z,72.9
2022-07-26T22:40:25.198Z,72.9
2022-07-26T22:45:25.140Z,72.9
2022-07-26T22:50:25.119Z,73.0
2022-07-26T22:55:25.151Z,73.0
2022-07-26T23:00:25.281Z,73.0
2022-07-26T23:05:29.322Z,73.0
2022-07-26T23:10:25.030Z,73.1
2022-07-26T23:15:25.022Z,73.2
2022-07-26T23:20:25.122Z,73.2
2022-07-26T23:25:25.152Z,73.2
2022-07-26T23:30:25.035Z,73.3
2022-07-26T23:35:24.979Z,73.3
2022-07-26T23:40:24.985Z,73.4
2022-07-26T23:45:25.134Z,73.5
2022-07-26T23:50:24.804Z,73.5
2022-07-26T23:55:24.911Z,73.6
